Time;durP1;ratioP1;P1;durP2;ratioP2;P2;SDS_P1;SDS_P2;PMS_P1;PMS_P2;Temp;Humidity;BMP_temperature;BMP_pressure;BME280_temperature;BME280_humidity;BME280_pressure;Samples;Min_cycle;Max_cycle;Signal;HPM_P1;HPM_P2
2022/06/07 00:01:03;;;;;;;;;;;13.20;99.90;;;;;;5031473;28;19944;-53
2022/06/07 00:03:29;;;;;;;;;;;13.20;99.90;;;;;;5031488;28;20432;-54
2022/06/07 00:05:55;;;;;;;;;;;13.10;99.90;;;;;;5030874;28;19948;-53
2022/06/07 00:08:21;;;;;;;;;;;13.00;99.90;;;;;;5031097;28;19952;-53
2022/06/07 00:10:46;;;;;;;;;;;12.90;99.90;;;;;;5031211;28;20339;-53
2022/06/07 00:13:12;;;;;;;;;;;12.90;99.90;;;;;;5031127;28;20004;-54
2022/06/07 00:15:39;;;;;;;;;;;12.80;99.90;;;;;;5031868;28;20285;-53
2022/06/07 00:18:04;;;;;;;;;;;12.70;99.90;;;;;;5034733;28;19905;-54
2022/06/07 00:20:30;;;;;;;;;;;12.70;99.90;;;;;;5034941;28;20309;-54
2022/06/07 00:22:56;;;;;;;;;;;12.60;99.90;;;;;;5034780;28;19909;-54
2022/06/07 00:25:22;;;;;;;;;;;12.50;99.90;;;;;;5034662;28;19945;-54
2022/06/07 00:27:48;;;;;;;;;;;12.50;99.90;;;;;;5034710;28;19909;-54
2022/06/07 00:30:14;;;;;;;;;;;12.50;99.90;;;;;;5034849;28;19950;-53
2022/06/07 00:32:40;;;;;;;;;;;12.50;99.90;;;;;;5034657;28;19999;-54
2022/06/07 00:35:06;;;;;;;;;;;12.50;99.90;;;;;;5034524;28;19905;-54
2022/06/07 00:37:31;;;;;;;;;;;12.40;99.90;;;;;;5034261;28;19917;-53
2022/06/07 00:39:57;;;;;;;;;;;12.40;99.90;;;;;;5034650;28;19951;-54
2022/06/07 00:42:22;;;;;;;;;;;12.40;99.90;;;;;;5034315;28;19909;-54
2022/06/07 00:44:48;;;;;;;;;;;12.40;99.90;;;;;;5034213;28;20400;-54
2022/06/07 00:47:13;;;;;;;;;;;12.40;99.90;;;;;;5034260;28;20287;-53
2022/06/07 00:49:53;;;;;;;;;;;12.40;99.90;;;;;;5034362;28;20378;-53
2022/06/07 00:52:20;;;;;;;;;;;12.40;99.90;;;;;;5034216;28;20008;-56
2022/06/07 00:54:46;;;;;;;;;;;12.30;99.90;;;;;;5034491;28;20431;-53
2022/06/07 00:57:11;;;;;;;;;;;12.30;99.90;;;;;;5034061;28;19905;-53
2022/06/07 00:59:37;;;;;;;;;;;12.40;99.90;;;;;;5034692;28;19909;-54
2022/06/07 01:02:03;;;;;;;;;;;12.40;99.90;;;;;;5034199;28;19904;-54
2022/06/07 01:04:29;;;;;;;;;;;12.30;99.90;;;;;;5034081;28;19909;-53
2022/06/07 01:12:23;;;;;;;;;;;12.20;99.90;;;;;;5034330;28;19959;-54
2022/06/07 01:14:49;;;;;;;;;;;12.20;99.90;;;;;;5033895;28;20324;-54
2022/06/07 01:17:14;;;;;;;;;;;12.10;99.90;;;;;;5033979;28;19909;-54
2022/06/07 01:19:40;;;;;;;;;;;12.00;99.90;;;;;;5033908;28;20429;-53
2022/06/07 01:22:05;;;;;;;;;;;12.00;99.90;;;;;;5034276;28;20281;-54
2022/06/07 01:24:31;;;;;;;;;;;12.00;99.90;;;;;;5033629;28;19976;-56
2022/06/07 01:26:56;;;;;;;;;;;12.00;99.90;;;;;;5033068;28;19909;-59
2022/06/07 01:29:22;;;;;;;;;;;12.00;99.90;;;;;;5033726;28;20366;-54
2022/06/07 01:31:48;;;;;;;;;;;12.00;99.90;;;;;;5033796;28;19905;-54
2022/06/07 01:34:13;;;;;;;;;;;12.00;99.90;;;;;;5033934;28;20407;-55
2022/06/07 01:36:39;;;;;;;;;;;11.90;99.90;;;;;;5033548;28;20114;-54
2022/06/07 01:41:54;;;;;;;;;;;11.90;99.90;;;;;;5033269;28;19935;-54
2022/06/07 01:44:23;;;;;;;;;;;11.90;99.90;;;;;;5033723;28;19928;-54
2022/06/07 01:46:49;;;;;;;;;;;11.90;99.90;;;;;;5033374;28;19913;-54
2022/06/07 01:49:15;;;;;;;;;;;11.80;99.90;;;;;;5033115;28;19916;-54
2022/06/07 01:51:40;;;;;;;;;;;11.80;99.90;;;;;;5033435;28;19905;-55
2022/06/07 01:54:06;;;;;;;;;;;11.80;99.90;;;;;;5033092;28;20400;-54
2022/06/07 01:56:31;;;;;;;;;;;11.80;99.90;;;;;;5032813;28;19994;-53
2022/06/07 01:58:57;;;;;;;;;;;11.80;99.90;;;;;;5033654;28;20345;-54
2022/06/07 02:01:23;;;;;;;;;;;11.70;99.90;;;;;;5032973;28;20225;-54
2022/06/07 02:03:48;;;;;;;;;;;11.70;99.90;;;;;;5032753;28;19904;-54
2022/06/07 02:06:14;;;;;;;;;;;11.70;99.90;;;;;;5032436;28;19913;-54
2022/06/07 02:08:41;;;;;;;;;;;11.70;99.90;;;;;;5033185;28;20062;-54
2022/06/07 02:11:09;;;;;;;;;;;11.70;99.90;;;;;;5031500;28;19909;-54
2022/06/07 02:13:35;;;;;;;;;;;11.70;99.90;;;;;;5032625;28;19909;-54
2022/06/07 02:16:01;;;;;;;;;;;11.60;99.90;;;;;;5032607;28;20322;-54
2022/06/07 02:18:26;;;;;;;;;;;11.60;99.90;;;;;;5032697;28;19905;-54
2022/06/07 02:20:54;;;;;;;;;;;11.60;99.90;;;;;;5032840;28;19913;-53
2022/06/07 02:23:19;;;;;;;;;;;11.60;99.90;;;;;;5031259;28;20358;-55
2022/06/07 02:25:48;;;;;;;;;;;11.60;99.90;;;;;;5032472;28;19909;-54
2022/06/07 02:28:14;;;;;;;;;;;11.60;99.90;;;;;;5032226;28;20007;-55
2022/06/07 02:30:41;;;;;;;;;;;11.60;99.90;;;;;;5032678;28;19905;-55
2022/06/07 02:33:07;;;;;;;;;;;11.60;99.90;;;;;;5032695;28;19920;-54
2022/06/07 02:35:33;;;;;;;;;;;11.60;99.90;;;;;;5032411;28;19935;-54
2022/06/07 02:37:58;;;;;;;;;;;11.60;99.90;;;;;;5032008;28;19940;-55
2022/06/07 02:40:24;;;;;;;;;;;11.60;99.90;;;;;;5030690;28;19909;-55
2022/06/07 02:42:49;;;;;;;;;;;11.70;99.90;;;;;;5032287;28;19908;-54
2022/06/07 02:45:15;;;;;;;;;;;11.70;99.90;;;;;;5032244;28;19924;-54
2022/06/07 02:47:41;;;;;;;;;;;11.70;99.90;;;;;;5032193;28;20328;-54
2022/06/07 02:50:06;;;;;;;;;;;11.70;99.90;;;;;;5032488;28;19951;-54
2022/06/07 02:52:32;;;;;;;;;;;11.70;99.90;;;;;;5032170;28;20284;-54
2022/06/07 02:54:58;;;;;;;;;;;11.70;99.90;;;;;;5030802;28;19955;-53
2022/06/07 02:57:25;;;;;;;;;;;11.70;99.90;;;;;;5032036;28;19905;-55
2022/06/07 02:59:51;;;;;;;;;;;11.80;99.90;;;;;;5030841;28;20019;-54
2022/06/07 03:02:17;;;;;;;;;;;11.80;99.90;;;;;;5031851;28;19955;-54
2022/06/07 03:04:42;;;;;;;;;;;11.80;99.90;;;;;;5032161;28;19909;-54
2022/06/07 03:07:08;;;;;;;;;;;11.90;99.90;;;;;;5031826;28;19960;-54
2022/06/07 03:09:33;;;;;;;;;;;12.00;99.90;;;;;;5031895;28;19944;-54
2022/06/07 03:11:59;;;;;;;;;;;12.00;99.90;;;;;;5032018;28;20424;-54
2022/06/07 03:14:25;;;;;;;;;;;12.00;99.90;;;;;;5032170;28;19955;-55
2022/06/07 03:16:50;;;;;;;;;;;12.00;99.90;;;;;;5032133;28;20372;-55
2022/06/07 03:19:16;;;;;;;;;;;12.00;99.90;;;;;;5031514;28;19974;-55
2022/06/07 03:21:41;;;;;;;;;;;12.10;99.90;;;;;;5031991;28;19913;-54
2022/06/07 03:24:07;;;;;;;;;;;12.10;99.90;;;;;;5031782;28;19932;-54
2022/06/07 03:26:33;;;;;;;;;;;12.20;99.90;;;;;;5031373;28;19999;-54
2022/06/07 03:28:58;;;;;;;;;;;12.30;99.90;;;;;;5031694;28;19943;-54
2022/06/07 03:31:24;;;;;;;;;;;12.40;99.90;;;;;;5031704;28;19912;-54
2022/06/07 03:33:49;;;;;;;;;;;12.40;99.90;;;;;;5031468;28;19905;-54
2022/06/07 03:36:17;;;;;;;;;;;12.40;99.90;;;;;;5031247;28;19913;-54
2022/06/07 03:38:43;;;;;;;;;;;12.50;99.90;;;;;;5031639;28;20358;-54
2022/06/07 03:41:09;;;;;;;;;;;12.50;99.90;;;;;;5030601;28;19905;-54
2022/06/07 03:43:35;;;;;;;;;;;12.60;99.90;;;;;;5031731;28;19984;-54
2022/06/07 03:46:08;;;;;;;;;;;12.60;99.90;;;;;;5031273;28;19920;-54
2022/06/07 03:48:33;;;;;;;;;;;12.70;99.90;;;;;;5031360;28;19912;-54
2022/06/07 03:50:59;;;;;;;;;;;12.70;99.90;;;;;;5034106;28;19905;-54
2022/06/07 03:53:24;;;;;;;;;;;12.70;99.90;;;;;;5035168;28;19995;-54
2022/06/07 03:55:52;;;;;;;;;;;12.80;99.90;;;;;;5035210;28;19912;-55
2022/06/07 03:58:18;;;;;;;;;;;12.80;99.90;;;;;;5033798;28;20262;-54
2022/06/07 04:00:44;;;;;;;;;;;12.80;99.90;;;;;;5035128;28;19909;-54
2022/06/07 04:03:09;;;;;;;;;;;12.80;99.90;;;;;;5035354;28;20286;-55
2022/06/07 04:05:42;;;;;;;;;;;12.70;99.90;;;;;;5035073;28;19908;-54
2022/06/07 04:08:10;;;;;;;;;;;12.70;99.90;;;;;;5035122;28;19912;-54
2022/06/07 04:10:36;;;;;;;;;;;12.70;99.90;;;;;;5035251;28;19913;-54
2022/06/07 04:13:02;;;;;;;;;;;12.70;99.90;;;;;;5034929;28;19916;-54
2022/06/07 04:15:28;;;;;;;;;;;12.60;99.90;;;;;;5035137;28;19905;-55
2022/06/07 04:17:53;;;;;;;;;;;12.70;99.90;;;;;;5035048;28;20015;-54
2022/06/07 04:20:20;;;;;;;;;;;12.80;99.90;;;;;;5035268;28;19916;-54
2022/06/07 04:22:45;;;;;;;;;;;12.80;99.90;;;;;;5035125;28;19904;-54
2022/06/07 04:25:11;;;;;;;;;;;12.90;99.90;;;;;;5035343;28;20277;-53
2022/06/07 04:27:36;;;;;;;;;;;13.00;99.90;;;;;;5034549;28;20357;-53
2022/06/07 04:30:02;;;;;;;;;;;13.00;99.90;;;;;;5034822;28;19932;-54
2022/06/07 04:32:28;;;;;;;;;;;13.20;99.90;;;;;;5034615;28;19905;-54
2022/06/07 04:34:53;;;;;;;;;;;13.20;99.90;;;;;;5034503;28;19911;-54
2022/06/07 04:37:19;;;;;;;;;;;13.20;99.90;;;;;;5034228;28;20332;-53
2022/06/07 04:39:45;;;;;;;;;;;13.20;99.90;;;;;;5034703;28;20381;-54
2022/06/07 04:42:10;;;;;;;;;;;13.30;99.90;;;;;;5034526;28;19905;-54
2022/06/07 04:44:35;;;;;;;;;;;13.40;99.90;;;;;;5034287;28;19909;-54
2022/06/07 04:47:01;;;;;;;;;;;13.40;99.90;;;;;;5034185;28;19952;-54
2022/06/07 04:49:27;;;;;;;;;;;13.50;99.90;;;;;;5034187;28;19905;-54
2022/06/07 04:51:52;;;;;;;;;;;13.40;99.90;;;;;;5034384;28;19947;-54
2022/06/07 04:54:18;;;;;;;;;;;13.60;99.90;;;;;;5034209;28;19949;-55
2022/06/07 04:56:43;;;;;;;;;;;13.60;99.90;;;;;;5033933;28;19916;-54
2022/06/07 04:59:09;;;;;;;;;;;13.60;99.90;;;;;;5033735;28;19905;-55
2022/06/07 05:01:36;;;;;;;;;;;13.60;99.90;;;;;;5033258;28;19996;-54
2022/06/07 05:04:02;;;;;;;;;;;13.70;99.90;;;;;;5034156;28;19969;-53
2022/06/07 05:06:32;;;;;;;;;;;13.80;99.90;;;;;;5033706;28;19962;-53
2022/06/07 05:08:59;;;;;;;;;;;13.90;99.90;;;;;;5034120;28;20051;-53
2022/06/07 05:11:25;;;;;;;;;;;13.90;99.90;;;;;;5034332;28;20338;-53
2022/06/07 05:13:54;;;;;;;;;;;14.00;99.90;;;;;;5033867;28;19928;-55
2022/06/07 05:16:20;;;;;;;;;;;13.90;99.90;;;;;;5033421;28;19949;-52
2022/06/07 05:18:50;;;;;;;;;;;13.90;99.90;;;;;;5033461;28;19947;-52
2022/06/07 05:21:16;;;;;;;;;;;14.00;99.90;;;;;;5033509;28;19905;-53
2022/06/07 05:23:41;;;;;;;;;;;14.00;99.90;;;;;;5033463;28;20007;-53
2022/06/07 05:26:07;;;;;;;;;;;14.00;99.90;;;;;;5033220;28;19909;-53
2022/06/07 05:28:33;;;;;;;;;;;14.10;99.90;;;;;;5033173;28;19905;-53
2022/06/07 05:30:58;;;;;;;;;;;14.10;99.90;;;;;;5033282;28;20281;-53
2022/06/07 05:33:24;;;;;;;;;;;14.20;99.90;;;;;;5033196;28;19905;-53
2022/06/07 05:35:49;;;;;;;;;;;14.30;99.90;;;;;;5033062;28;19904;-53
2022/06/07 05:38:16;;;;;;;;;;;14.30;99.90;;;;;;5032858;28;20002;-53
2022/06/07 05:40:41;;;;;;;;;;;14.40;99.90;;;;;;5033198;28;19905;-53
2022/06/07 05:43:08;;;;;;;;;;;14.50;99.90;;;;;;5021096;28;19920;-53
2022/06/07 05:45:33;;;;;;;;;;;14.50;99.90;;;;;;5011693;28;20263;-53
2022/06/07 05:47:59;;;;;;;;;;;14.40;99.90;;;;;;5016456;28;19955;-53
2022/06/07 05:50:25;;;;;;;;;;;14.50;99.90;;;;;;5029140;28;19909;-53
2022/06/07 05:52:51;;;;;;;;;;;14.60;99.90;;;;;;5027521;28;19991;-53
2022/06/07 05:55:16;;;;;;;;;;;14.80;99.90;;;;;;5025302;28;20115;-53
2022/06/07 05:57:44;;;;;;;;;;;14.90;99.90;;;;;;5022155;28;19909;-53
2022/06/07 06:00:10;;;;;;;;;;;14.90;99.90;;;;;;5025189;28;19909;-52
2022/06/07 06:02:36;;;;;;;;;;;15.10;99.90;;;;;;5018860;28;20015;-52
2022/06/07 06:05:01;;;;;;;;;;;15.10;99.90;;;;;;5015588;28;20420;-52
2022/06/07 06:07:28;;;;;;;;;;;15.10;99.90;;;;;;5022751;28;20008;-52
2022/06/07 06:12:37;;;;;;;;;;;15.10;99.90;;;;;;5014562;28;20396;-53
2022/06/07 06:15:03;;;;;;;;;;;15.10;99.90;;;;;;5014918;28;20447;-52
2022/06/07 06:17:28;;;;;;;;;;;15.10;99.90;;;;;;5012747;28;19921;-53
2022/06/07 06:19:54;;;;;;;;;;;15.10;99.90;;;;;;4999398;28;20277;-53
2022/06/07 06:22:19;;;;;;;;;;;15.20;99.90;;;;;;4997485;28;19916;-53
2022/06/07 06:24:45;;;;;;;;;;;15.40;99.90;;;;;;4999803;28;19917;-53
2022/06/07 06:27:10;;;;;;;;;;;15.40;99.90;;;;;;4995286;28;19920;-53
2022/06/07 06:29:36;;;;;;;;;;;15.40;99.90;;;;;;5002005;28;20000;-53
2022/06/07 06:32:02;;;;;;;;;;;15.50;99.90;;;;;;5011357;28;19974;-53
2022/06/07 06:34:29;;;;;;;;;;;15.70;99.90;;;;;;5016673;28;20440;-53
2022/06/07 06:36:56;;;;;;;;;;;15.70;99.90;;;;;;5008414;28;19952;-53
2022/06/07 06:39:22;;;;;;;;;;;15.70;99.90;;;;;;5010882;28;19912;-53
2022/06/07 06:41:47;;;;;;;;;;;15.70;99.90;;;;;;5013123;28;19924;-52
2022/06/07 06:44:13;;;;;;;;;;;15.80;99.90;;;;;;5013079;28;20009;-53
2022/06/07 06:46:40;;;;;;;;;;;15.70;99.90;;;;;;5004171;28;19974;-53
2022/06/07 06:49:06;;;;;;;;;;;15.70;99.90;;;;;;4999712;28;19924;-53
2022/06/07 06:51:32;;;;;;;;;;;15.80;99.90;;;;;;5003005;28;19955;-53
2022/06/07 06:53:58;;;;;;;;;;;15.80;99.90;;;;;;5004787;28;20346;-53
2022/06/07 06:56:24;;;;;;;;;;;15.80;99.90;;;;;;5006100;28;19924;-53
2022/06/07 06:58:50;;;;;;;;;;;15.90;99.90;;;;;;5007540;28;20294;-53
2022/06/07 07:01:17;;;;;;;;;;;16.00;99.90;;;;;;5006700;28;20360;-53
2022/06/07 07:03:43;;;;;;;;;;;16.10;99.90;;;;;;5004916;28;19940;-53
2022/06/07 07:06:10;;;;;;;;;;;16.20;99.90;;;;;;5001133;28;20385;-53
2022/06/07 07:08:37;;;;;;;;;;;16.40;99.90;;;;;;5005316;28;19929;-53
2022/06/07 07:11:06;;;;;;;;;;;16.50;99.90;;;;;;5004650;28;19917;-54
2022/06/07 07:13:31;;;;;;;;;;;16.60;99.90;;;;;;5010317;28;19970;-54
2022/06/07 07:15:57;;;;;;;;;;;16.70;99.90;;;;;;5012704;28;20341;-53
2022/06/07 07:18:23;;;;;;;;;;;16.70;99.90;;;;;;5008570;28;20016;-54
2022/06/07 07:20:49;;;;;;;;;;;16.80;99.90;;;;;;5008795;28;19928;-53
2022/06/07 07:23:16;;;;;;;;;;;17.30;99.90;;;;;;5009207;28;20354;-53
2022/06/07 07:25:41;;;;;;;;;;;17.20;99.90;;;;;;5013117;28;19927;-54
2022/06/07 07:28:07;;;;;;;;;;;17.20;99.90;;;;;;5008564;28;19917;-53
2022/06/07 07:30:33;;;;;;;;;;;17.40;99.90;;;;;;5008113;28;20346;-53
2022/06/07 07:32:58;;;;;;;;;;;17.50;99.90;;;;;;5006221;28;20361;-54
2022/06/07 07:35:24;;;;;;;;;;;17.60;99.90;;;;;;5003901;28;19913;-54
2022/06/07 07:37:50;;;;;;;;;;;17.30;99.90;;;;;;5002762;28;20415;-53
2022/06/07 07:40:15;;;;;;;;;;;17.30;99.90;;;;;;5010125;28;19917;-53
2022/06/07 07:42:41;;;;;;;;;;;17.30;99.90;;;;;;5008119;28;20893;-54
2022/06/07 07:45:08;;;;;;;;;;;17.40;99.90;;;;;;5006922;28;19925;-53
2022/06/07 07:47:33;;;;;;;;;;;17.40;99.90;;;;;;5003955;28;19917;-53
2022/06/07 07:49:59;;;;;;;;;;;17.40;99.90;;;;;;5021193;28;19916;-53
2022/06/07 07:52:25;;;;;;;;;;;17.30;99.90;;;;;;5006563;28;19909;-54
2022/06/07 07:54:51;;;;;;;;;;;17.20;99.90;;;;;;5000577;28;19917;-53
2022/06/07 07:57:16;;;;;;;;;;;17.20;99.90;;;;;;5006973;28;20366;-53
2022/06/07 07:59:42;;;;;;;;;;;17.20;99.90;;;;;;5010208;28;19998;-54
2022/06/07 08:02:14;;;;;;;;;;;17.10;99.90;;;;;;5008650;28;20420;-53
2022/06/07 08:04:39;;;;;;;;;;;16.90;99.90;;;;;;5009484;28;21492;-53
2022/06/07 08:07:05;;;;;;;;;;;16.80;99.90;;;;;;5007759;28;19970;-54
2022/06/07 08:09:30;;;;;;;;;;;16.90;99.90;;;;;;5007733;28;19916;-53
2022/06/07 08:11:55;;;;;;;;;;;17.00;99.90;;;;;;5011893;28;20364;-52
2022/06/07 08:14:23;;;;;;;;;;;17.30;99.90;;;;;;5005599;28;20028;-53
2022/06/07 08:16:49;;;;;;;;;;;17.40;99.90;;;;;;5000989;28;19917;-53
2022/06/07 08:19:14;;;;;;;;;;;17.40;99.90;;;;;;5002667;28;20388;-53
2022/06/07 08:21:40;;;;;;;;;;;17.50;99.90;;;;;;4997967;28;19917;-53
2022/06/07 08:24:06;;;;;;;;;;;17.30;99.90;;;;;;5003969;28;19982;-53
2022/06/07 08:26:32;;;;;;;;;;;17.30;99.90;;;;;;5005344;28;20401;-53
2022/06/07 08:28:58;;;;;;;;;;;17.10;99.90;;;;;;5000681;28;20379;-53
2022/06/07 08:31:25;;;;;;;;;;;16.90;99.90;;;;;;4991402;28;19921;-53
2022/06/07 08:39:20;;;;;;;;;;;16.80;99.90;;;;;;5010959;28;20056;-54
2022/06/07 08:41:46;;;;;;;;;;;16.90;99.90;;;;;;5013837;28;20763;-54
2022/06/07 08:44:14;;;;;;;;;;;16.90;99.90;;;;;;5023160;28;19913;-53
2022/06/07 08:46:40;;;;;;;;;;;17.00;99.90;;;;;;5035483;28;19921;-53
2022/06/07 08:49:05;;;;;;;;;;;17.00;99.90;;;;;;5017930;28;20323;-53
2022/06/07 08:51:37;;;;;;;;;;;17.10;99.90;;;;;;5018075;28;19916;-53
2022/06/07 08:54:11;;;;;;;;;;;17.20;99.90;;;;;;5019869;28;19909;-53
2022/06/07 08:56:37;;;;;;;;;;;16.90;99.90;;;;;;5015449;28;19917;-54
2022/06/07 08:59:15;;;;;;;;;;;16.70;99.90;;;;;;5021153;28;20297;-53
2022/06/07 09:01:47;;;;;;;;;;;16.50;99.90;;;;;;5018309;28;19924;-53
2022/06/07 09:04:25;;;;;;;;;;;16.40;99.90;;;;;;5020262;28;20306;-53
2022/06/07 09:06:52;;;;;;;;;;;16.30;99.90;;;;;;5019903;28;19920;-54
2022/06/07 09:09:19;;;;;;;;;;;16.20;99.90;;;;;;5020326;28;19983;-53
2022/06/07 09:12:10;;;;;;;;;;;15.90;99.90;;;;;;5019634;28;19920;-53
2022/06/07 09:14:53;;;;;;;;;;;15.90;99.90;;;;;;5012514;28;19909;-53
2022/06/07 09:17:21;;;;;;;;;;;16.00;99.90;;;;;;5010712;28;19917;-53
2022/06/07 09:19:47;;;;;;;;;;;16.10;99.90;;;;;;5015614;28;19921;-53
2022/06/07 09:22:18;;;;;;;;;;;15.90;99.90;;;;;;5029312;28;19917;-53
2022/06/07 09:24:53;;;;;;;;;;;15.80;99.90;;;;;;5013197;28;19917;-53
2022/06/07 09:27:21;;;;;;;;;;;15.70;99.90;;;;;;5014084;28;19964;-54
2022/06/07 09:30:02;;;;;;;;;;;15.90;99.90;;;;;;5013581;28;19974;-54
2022/06/07 09:32:31;;;;;;;;;;;16.10;99.90;;;;;;5016480;28;19916;-52
2022/06/07 09:34:59;;;;;;;;;;;16.30;99.90;;;;;;5013487;28;20350;-52
2022/06/07 09:37:39;;;;;;;;;;;16.30;99.90;;;;;;5016549;28;20358;-52
2022/06/07 09:40:24;;;;;;;;;;;16.10;99.90;;;;;;5014540;28;19967;-52
2022/06/07 09:42:51;;;;;;;;;;;16.10;99.90;;;;;;5014575;28;19917;-52
2022/06/07 09:45:17;;;;;;;;;;;15.90;99.90;;;;;;5015786;28;19917;-52
2022/06/07 09:47:42;;;;;;;;;;;15.90;99.90;;;;;;5015911;28;19917;-52
2022/06/07 09:50:08;;;;;;;;;;;15.90;99.90;;;;;;5014569;28;19917;-53
2022/06/07 09:52:42;;;;;;;;;;;16.10;99.90;;;;;;5014941;28;20310;-52
2022/06/07 09:55:26;;;;;;;;;;;16.10;99.90;;;;;;5015207;28;19924;-52
2022/06/07 09:57:58;;;;;;;;;;;16.10;99.90;;;;;;5015282;28;20263;-52
2022/06/07 10:00:32;;;;;;;;;;;16.10;99.90;;;;;;5012975;28;19917;-53
2022/06/07 10:03:12;;;;;;;;;;;16.00;99.90;;;;;;5015387;28;19921;-53
2022/06/07 10:05:52;;;;;;;;;;;16.00;99.90;;;;;;5008815;28;20340;-52
2022/06/07 10:08:42;;;;;;;;;;;16.10;99.90;;;;;;5009189;28;19978;-52
2022/06/07 10:11:17;;;;;;;;;;;16.20;99.90;;;;;;5008938;28;20288;-54
2022/06/07 10:13:51;;;;;;;;;;;15.90;99.90;;;;;;5011007;28;19917;-54
2022/06/07 10:16:43;;;;;;;;;;;15.80;99.90;;;;;;5007499;28;19997;-51
2022/06/07 10:19:27;;;;;;;;;;;15.80;99.90;;;;;;5007412;28;20341;-51
2022/06/07 10:21:56;;;;;;;;;;;15.90;99.90;;;;;;5019613;28;20031;-51
2022/06/07 10:24:41;;;;;;;;;;;15.80;99.90;;;;;;5006891;28;20286;-52
2022/06/07 10:27:11;;;;;;;;;;;15.70;99.90;;;;;;5011768;28;20468;-51
2022/06/07 10:29:40;;;;;;;;;;;15.80;99.90;;;;;;5009403;28;20541;-52
2022/06/07 10:32:16;;;;;;;;;;;15.80;99.90;;;;;;5010845;28;20418;-52
2022/06/07 10:35:08;;;;;;;;;;;15.70;99.90;;;;;;5011688;28;20296;-53
2022/06/07 10:37:40;;;;;;;;;;;15.90;99.90;;;;;;5006396;28;19932;-52
2022/06/07 10:40:27;;;;;;;;;;;15.90;99.90;;;;;;5008178;28;20388;-52
2022/06/07 10:43:01;;;;;;;;;;;16.00;99.90;;;;;;5006435;28;20007;-51
2022/06/07 10:45:28;;;;;;;;;;;16.10;99.90;;;;;;5005544;28;20383;-52
2022/06/07 10:48:02;;;;;;;;;;;16.10;99.90;;;;;;5007198;28;20401;-52
2022/06/07 10:50:31;;;;;;;;;;;16.00;99.90;;;;;;5010915;28;20548;-52
2022/06/07 10:53:00;;;;;;;;;;;16.10;99.90;;;;;;5009491;28;19921;-52
2022/06/07 10:55:26;;;;;;;;;;;16.30;99.90;;;;;;5005310;28;19917;-52
2022/06/07 10:58:10;;;;;;;;;;;16.60;99.90;;;;;;5009315;28;19916;-52
2022/06/07 11:00:38;;;;;;;;;;;16.60;99.90;;;;;;5006728;28;19928;-52
2022/06/07 11:03:09;;;;;;;;;;;16.30;99.90;;;;;;5004310;28;19923;-52
2022/06/07 11:11:07;;;;;;;;;;;16.00;99.90;;;;;;5001624;28;19939;-52
2022/06/07 11:13:51;;;;;;;;;;;15.80;99.90;;;;;;5004605;28;19913;-55
2022/06/07 11:16:22;;;;;;;;;;;15.70;99.90;;;;;;5003401;28;21413;-55
2022/06/07 11:18:48;;;;;;;;;;;15.80;99.90;;;;;;5012468;28;20487;-56
2022/06/07 11:21:21;;;;;;;;;;;15.80;99.90;;;;;;5005604;28;19927;-55
2022/06/07 11:23:55;;;;;;;;;;;16.00;99.90;;;;;;5012784;28;19924;-56
2022/06/07 11:26:21;;;;;;;;;;;16.00;99.90;;;;;;5017186;28;20413;-56
2022/06/07 11:28:54;;;;;;;;;;;16.20;99.90;;;;;;5014719;28;19928;-56
2022/06/07 11:31:35;;;;;;;;;;;16.30;99.90;;;;;;5013216;28;19994;-56
2022/06/07 11:34:06;;;;;;;;;;;16.50;99.90;;;;;;5014434;28;19956;-56
2022/06/07 11:36:35;;;;;;;;;;;16.70;99.90;;;;;;5009705;28;19925;-56
2022/06/07 11:39:01;;;;;;;;;;;16.80;99.90;;;;;;5016121;28;19924;-56
2022/06/07 11:41:39;;;;;;;;;;;17.00;99.90;;;;;;5016888;28;19916;-57
2022/06/07 11:44:07;;;;;;;;;;;17.00;99.90;;;;;;5030673;28;19916;-55
2022/06/07 11:46:33;;;;;;;;;;;17.20;99.90;;;;;;5018619;28;20450;-55
2022/06/07 11:49:19;;;;;;;;;;;17.40;99.90;;;;;;5012293;28;19913;-55
2022/06/07 11:52:02;;;;;;;;;;;17.70;99.90;;;;;;5012578;28;19936;-55
2022/06/07 11:54:31;;;;;;;;;;;17.90;99.90;;;;;;5015849;28;20274;-55
2022/06/07 11:56:59;;;;;;;;;;;18.00;99.90;;;;;;5008864;28;19917;-55
2022/06/07 11:59:27;;;;;;;;;;;17.80;99.90;;;;;;5003682;28;19941;-54
2022/06/07 12:02:01;;;;;;;;;;;17.70;99.90;;;;;;5002181;28;19920;-54
2022/06/07 12:04:32;;;;;;;;;;;17.90;99.90;;;;;;5007954;28;19917;-53
2022/06/07 12:07:05;;;;;;;;;;;18.00;99.90;;;;;;5008777;28;20015;-54
2022/06/07 12:09:32;;;;;;;;;;;18.10;99.90;;;;;;5009284;28;20328;-54
2022/06/07 12:11:58;;;;;;;;;;;18.10;99.90;;;;;;5013086;28;20377;-54
2022/06/07 12:14:26;;;;;;;;;;;18.40;99.90;;;;;;5013306;28;19917;-54
2022/06/07 12:16:57;;;;;;;;;;;18.30;99.90;;;;;;5012165;28;20282;-53
2022/06/07 12:19:24;;;;;;;;;;;17.80;99.90;;;;;;5011341;28;19946;-54
2022/06/07 12:21:57;;;;;;;;;;;17.70;99.90;;;;;;5014858;28;19959;-54
2022/06/07 12:24:23;;;;;;;;;;;17.70;99.90;;;;;;5015983;28;19924;-55
2022/06/07 12:26:50;;;;;;;;;;;17.90;99.90;;;;;;5016492;28;19971;-55
2022/06/07 12:29:19;;;;;;;;;;;18.20;99.90;;;;;;5013001;28;20012;-54
2022/06/07 12:31:47;;;;;;;;;;;18.40;99.90;;;;;;5021564;28;20008;-54
2022/06/07 12:34:33;;;;;;;;;;;19.00;99.90;;;;;;5021655;28;19917;-55
2022/06/07 12:37:00;;;;;;;;;;;19.50;99.90;;;;;;5021505;28;19921;-54
2022/06/07 12:39:27;;;;;;;;;;;20.00;99.90;;;;;;5019068;28;19917;-54
2022/06/07 12:41:54;;;;;;;;;;;19.90;99.90;;;;;;5012772;28;19956;-55
2022/06/07 12:44:31;;;;;;;;;;;20.00;99.90;;;;;;5015102;28;20393;-55
2022/06/07 12:46:57;;;;;;;;;;;20.00;99.90;;;;;;5020009;28;19932;-55
2022/06/07 12:49:25;;;;;;;;;;;20.20;99.90;;;;;;5014308;28;19920;-55
2022/06/07 12:52:01;;;;;;;;;;;20.00;99.90;;;;;;5011534;28;19913;-55
2022/06/07 12:54:28;;;;;;;;;;;20.50;99.90;;;;;;5012482;28;19917;-55
2022/06/07 12:56:55;;;;;;;;;;;20.90;99.90;;;;;;5016013;28;19968;-54
2022/06/07 12:59:35;;;;;;;;;;;20.70;99.90;;;;;;5011518;28;20016;-55
2022/06/07 13:02:03;;;;;;;;;;;20.20;99.90;;;;;;5011903;28;20040;-54
2022/06/07 13:04:28;;;;;;;;;;;20.40;99.90;;;;;;5011387;28;20007;-54
2022/06/07 13:06:57;;;;;;;;;;;21.10;99.90;;;;;;5007852;28;20124;-54
2022/06/07 13:09:22;;;;;;;;;;;21.30;99.90;;;;;;5016527;28;20099;-54
2022/06/07 13:11:48;;;;;;;;;;;21.10;99.90;;;;;;5017709;28;19917;-55
2022/06/07 13:14:14;;;;;;;;;;;20.60;99.90;;;;;;5021491;28;19909;-55
2022/06/07 13:16:42;;;;;;;;;;;20.40;99.90;;;;;;5022563;28;19913;-55
2022/06/07 13:19:14;;;;;;;;;;;20.10;99.90;;;;;;5020592;28;19963;-56
2022/06/07 13:21:41;;;;;;;;;;;19.90;99.90;;;;;;5024368;28;19916;-55
2022/06/07 13:24:17;;;;;;;;;;;20.00;99.90;;;;;;5026678;28;20000;-54
2022/06/07 13:26:44;;;;;;;;;;;19.90;99.90;;;;;;5019355;28;19920;-55
2022/06/07 13:29:09;;;;;;;;;;;20.30;99.90;;;;;;5024107;28;20003;-56
2022/06/07 13:31:41;;;;;;;;;;;20.80;99.90;;;;;;5025745;28;19996;-53
2022/06/07 13:34:12;;;;;;;;;;;21.10;99.90;;;;;;5024109;28;19915;-53
2022/06/07 13:36:39;;;;;;;;;;;21.00;99.90;;;;;;5026198;28;19921;-53
2022/06/07 13:39:05;;;;;;;;;;;22.00;99.90;;;;;;5026666;28;19928;-53
2022/06/07 13:41:31;;;;;;;;;;;23.60;99.90;;;;;;5028522;28;19913;-53
2022/06/07 13:44:02;;;;;;;;;;;24.40;99.90;;;;;;5030807;28;20309;-55
2022/06/07 13:46:30;;;;;;;;;;;24.10;99.90;;;;;;5037292;28;19909;-53
2022/06/07 13:54:26;;;;;;;;;;;22.60;99.90;;;;;;5031719;28;19911;-54
2022/06/07 13:56:51;;;;;;;;;;;22.50;99.90;;;;;;5025681;28;20358;-54
2022/06/07 13:59:18;;;;;;;;;;;22.80;99.90;;;;;;5029784;28;19909;-54
2022/06/07 14:01:45;;;;;;;;;;;22.60;99.90;;;;;;5029272;28;20327;-54
2022/06/07 14:04:22;;;;;;;;;;;22.10;99.90;;;;;;5022909;28;19952;-54
2022/06/07 14:06:48;;;;;;;;;;;21.40;99.90;;;;;;5024620;28;19960;-54
2022/06/07 14:09:13;;;;;;;;;;;21.00;99.90;;;;;;5028215;28;20001;-55
2022/06/07 14:11:39;;;;;;;;;;;20.40;99.90;;;;;;5032599;28;19916;-54
2022/06/07 14:14:05;;;;;;;;;;;20.40;99.90;;;;;;5030833;28;19909;-54
2022/06/07 14:16:32;;;;;;;;;;;20.70;99.90;;;;;;5030193;28;19939;-54
2022/06/07 14:18:59;;;;;;;;;;;20.70;99.90;;;;;;5028931;28;19913;-54
2022/06/07 14:21:25;;;;;;;;;;;20.70;99.90;;;;;;5031527;28;20011;-58
2022/06/07 14:23:50;;;;;;;;;;;20.60;99.90;;;;;;5024851;28;20370;-53
2022/06/07 14:26:16;;;;;;;;;;;20.50;99.90;;;;;;5028134;28;19919;-53
2022/06/07 14:28:41;;;;;;;;;;;20.40;99.90;;;;;;5026218;28;20267;-53
2022/06/07 14:31:14;;;;;;;;;;;20.40;99.90;;;;;;5028618;28;20007;-53
2022/06/07 14:33:40;;;;;;;;;;;20.70;99.90;;;;;;5042158;28;20307;-53
2022/06/07 14:36:05;;;;;;;;;;;21.00;99.90;;;;;;5024937;28;19916;-53
2022/06/07 14:38:31;;;;;;;;;;;21.20;99.90;;;;;;5032233;28;19909;-53
2022/06/07 14:40:56;;;;;;;;;;;20.60;99.90;;;;;;5023266;28;19913;-53
2022/06/07 14:43:23;;;;;;;;;;;20.50;99.90;;;;;;5030791;28;20348;-53
2022/06/07 14:46:01;;;;;;;;;;;20.40;99.90;;;;;;5027363;28;19913;-53
2022/06/07 14:48:29;;;;;;;;;;;20.30;99.90;;;;;;5030682;28;19915;-53